sensor_id;sensor_type;location;lat;lon;timestamp;pressure;altitude;pressure_sealevel;temperature;humidity
24752;BME280;27246;52.376;4.628;2023-08-06T00:01:57;100327.78;;;16.42;100.00
24752;BME280;27246;52.376;4.628;2023-08-06T00:06:59;100334.00;;;16.37;100.00
24752;BME280;27246;52.376;4.628;2023-08-06T00:12:00;100329.53;;;16.36;100.00
24752;BME280;27246;52.376;4.628;2023-08-06T00:17:04;100326.50;;;16.38;100.00
24752;BME280;27246;52.376;4.628;2023-08-06T00:22:06;100319.50;;;16.35;100.00
24752;BME280;27246;52.376;4.628;2023-08-06T00:27:08;100315.03;;;16.34;100.00
24752;BME280;27246;52.376;4.628;2023-08-06T00:32:10;100317.97;;;16.39;100.00
24752;BME280;27246;52.376;4.628;2023-08-06T00:37:11;100319.44;;;16.42;100.00
24752;BME280;27246;52.376;4.628;2023-08-06T00:42:13;100319.66;;;16.40;100.00
24752;BME280;27246;52.376;4.628;2023-08-06T00:47:15;100323.72;;;16.38;100.00
24752;BME280;27246;52.376;4.628;2023-08-06T00:52:18;100322.84;;;16.44;100.00
24752;BME280;27246;52.376;4.628;2023-08-06T00:57:23;100322.59;;;16.46;100.00
24752;BME280;27246;52.376;4.628;2023-08-06T01:02:27;100314.53;;;16.44;100.00
24752;BME280;27246;52.376;4.628;2023-08-06T01:07:33;100323.06;;;16.43;100.00
24752;BME280;27246;52.376;4.628;2023-08-06T01:13:24;100318.28;;;16.50;100.00
24752;BME280;27246;52.376;4.628;2023-08-06T01:18:04;100331.09;;;16.51;100.00
24752;BME280;27246;52.376;4.628;2023-08-06T01:23:06;100327.53;;;16.44;100.00
24752;BME280;27246;52.376;4.628;2023-08-06T01:28:59;100319.81;;;16.46;100.00
24752;BME280;27246;52.376;4.628;2023-08-06T01:33:43;100330.47;;;16.49;100.00
24752;BME280;27246;52.376;4.628;2023-08-06T01:38:45;100328.75;;;16.48;100.00
24752;BME280;27246;52.376;4.628;2023-08-06T01:43:47;100321.22;;;16.55;100.00
24752;BME280;27246;52.376;4.628;2023-08-06T01:48:49;100335.81;;;16.50;100.00
24752;BME280;27246;52.376;4.628;2023-08-06T01:53:51;100333.69;;;16.46;100.00
24752;BME280;27246;52.376;4.628;2023-08-06T01:58:52;100333.66;;;16.52;100.00
24752;BME280;27246;52.376;4.628;2023-08-06T02:03:54;100324.22;;;16.53;100.00
24752;BME280;27246;52.376;4.628;2023-08-06T02:08:56;100328.94;;;16.53;100.00
24752;BME280;27246;52.376;4.628;2023-08-06T02:13:57;100344.56;;;16.47;100.00
24752;BME280;27246;52.376;4.628;2023-08-06T02:18:59;100351.22;;;16.46;100.00
24752;BME280;27246;52.376;4.628;2023-08-06T02:24:04;100350.34;;;16.46;100.00
24752;BME280;27246;52.376;4.628;2023-08-06T02:29:05;100344.50;;;16.54;100.00
24752;BME280;27246;52.376;4.628;2023-08-06T02:34:07;100338.72;;;16.55;100.00
24752;BME280;27246;52.376;4.628;2023-08-06T02:39:09;100345.50;;;16.59;100.00
24752;BME280;27246;52.376;4.628;2023-08-06T02:44:10;100342.97;;;16.58;100.00
24752;BME280;27246;52.376;4.628;2023-08-06T02:49:12;100336.97;;;16.61;100.00
24752;BME280;27246;52.376;4.628;2023-08-06T02:54:14;100338.09;;;16.53;100.00
24752;BME280;27246;52.376;4.628;2023-08-06T02:59:16;100345.06;;;16.63;100.00
24752;BME280;27246;52.376;4.628;2023-08-06T03:04:33;100353.13;;;16.46;100.00
24752;BME280;27246;52.376;4.628;2023-08-06T03:09:35;100359.38;;;16.41;100.00
24752;BME280;27246;52.376;4.628;2023-08-06T03:14:37;100366.06;;;16.33;100.00
24752;BME280;27246;52.376;4.628;2023-08-06T03:19:44;100367.72;;;16.16;100.00
24752;BME280;27246;52.376;4.628;2023-08-06T03:24:50;100364.84;;;16.04;100.00
24752;BME280;27246;52.376;4.628;2023-08-06T03:29:54;100365.34;;;15.94;100.00
24752;BME280;27246;52.376;4.628;2023-08-06T03:34:59;100363.25;;;15.90;100.00
24752;BME280;27246;52.376;4.628;2023-08-06T03:40:04;100357.31;;;15.86;100.00
24752;BME280;27246;52.376;4.628;2023-08-06T03:45:08;100357.75;;;15.83;100.00
24752;BME280;27246;52.376;4.628;2023-08-06T03:50:11;100362.03;;;15.79;100.00
24752;BME280;27246;52.376;4.628;2023-08-06T03:55:13;100369.06;;;15.82;100.00
24752;BME280;27246;52.376;4.628;2023-08-06T04:00:15;100360.50;;;15.83;100.00
24752;BME280;27246;52.376;4.628;2023-08-06T04:05:23;100366.25;;;15.88;100.00
24752;BME280;27246;52.376;4.628;2023-08-06T04:10:25;100366.88;;;15.90;100.00
24752;BME280;27246;52.376;4.628;2023-08-06T04:15:27;100375.34;;;15.95;100.00
24752;BME280;27246;52.376;4.628;2023-08-06T04:20:34;100375.13;;;15.97;100.00
24752;BME280;27246;52.376;4.628;2023-08-06T04:25:36;100375.53;;;16.00;100.00
24752;BME280;27246;52.376;4.628;2023-08-06T04:30:37;100392.00;;;15.95;100.00
24752;BME280;27246;52.376;4.628;2023-08-06T04:35:41;100393.50;;;15.91;100.00
24752;BME280;27246;52.376;4.628;2023-08-06T04:40:43;100389.50;;;15.87;100.00
24752;BME280;27246;52.376;4.628;2023-08-06T04:45:54;100393.97;;;15.88;100.00
24752;BME280;27246;52.376;4.628;2023-08-06T04:50:56;100415.53;;;15.86;100.00
24752;BME280;27246;52.376;4.628;2023-08-06T04:55:58;100411.25;;;15.90;100.00
24752;BME280;27246;52.376;4.628;2023-08-06T05:00:59;100403.34;;;15.87;100.00
24752;BME280;27246;52.376;4.628;2023-08-06T05:06:04;100405.28;;;15.87;100.00
24752;BME280;27246;52.376;4.628;2023-08-06T05:11:06;100415.34;;;15.81;100.00
24752;BME280;27246;52.376;4.628;2023-08-06T05:16:08;100416.84;;;15.84;100.00
24752;BME280;27246;52.376;4.628;2023-08-06T05:21:09;100416.44;;;15.80;100.00
24752;BME280;27246;52.376;4.628;2023-08-06T05:26:11;100416.84;;;15.84;100.00
24752;BME280;27246;52.376;4.628;2023-08-06T05:31:13;100418.75;;;15.83;100.00
24752;BME280;27246;52.376;4.628;2023-08-06T05:36:15;100431.09;;;15.87;100.00
24752;BME280;27246;52.376;4.628;2023-08-06T05:41:19;100438.97;;;15.90;100.00
24752;BME280;27246;52.376;4.628;2023-08-06T05:46:20;100448.75;;;15.93;100.00
24752;BME280;27246;52.376;4.628;2023-08-06T05:51:22;100450.69;;;15.92;100.00
24752;BME280;27246;52.376;4.628;2023-08-06T05:56:24;100450.69;;;15.92;100.00
24752;BME280;27246;52.376;4.628;2023-08-06T06:01:26;100454.53;;;15.91;100.00
24752;BME280;27246;52.376;4.628;2023-08-06T06:06:28;100459.22;;;15.91;100.00
24752;BME280;27246;52.376;4.628;2023-08-06T06:11:30;100469.03;;;15.93;100.00
24752;BME280;27246;52.376;4.628;2023-08-06T06:16:34;100477.13;;;15.95;100.00
24752;BME280;27246;52.376;4.628;2023-08-06T06:21:35;100488.63;;;15.98;100.00
24752;BME280;27246;52.376;4.628;2023-08-06T06:26:37;100485.84;;;15.98;100.00
24752;BME280;27246;52.376;4.628;2023-08-06T06:31:39;100481.38;;;15.97;100.00
24752;BME280;27246;52.376;4.628;2023-08-06T06:36:41;100489.69;;;15.97;100.00
24752;BME280;27246;52.376;4.628;2023-08-06T06:41:42;100488.16;;;16.02;100.00
24752;BME280;27246;52.376;4.628;2023-08-06T06:46:56;100494.34;;;16.04;100.00
24752;BME280;27246;52.376;4.628;2023-08-06T06:51:58;100502.19;;;16.13;100.00
24752;BME280;27246;52.376;4.628;2023-08-06T06:57:00;100507.72;;;16.20;100.00
24752;BME280;27246;52.376;4.628;2023-08-06T07:02:03;100506.00;;;16.19;100.00
24752;BME280;27246;52.376;4.628;2023-08-06T07:07:05;100514.53;;;16.17;100.00
24752;BME280;27246;52.376;4.628;2023-08-06T07:12:07;100520.50;;;16.21;100.00
24752;BME280;27246;52.376;4.628;2023-08-06T07:17:09;100514.06;;;16.27;100.00
24752;BME280;27246;52.376;4.628;2023-08-06T07:22:10;100527.28;;;16.25;100.00
24752;BME280;27246;52.376;4.628;2023-08-06T07:27:12;100528.41;;;16.17;100.00
24752;BME280;27246;52.376;4.628;2023-08-06T07:32:14;100530.06;;;16.25;100.00
24752;BME280;27246;52.376;4.628;2023-08-06T07:37:16;100534.38;;;16.21;100.00
24752;BME280;27246;52.376;4.628;2023-08-06T07:42:18;100541.38;;;16.24;100.00
24752;BME280;27246;52.376;4.628;2023-08-06T07:47:22;100537.34;;;16.19;100.00
24752;BME280;27246;52.376;4.628;2023-08-06T07:52:24;100545.25;;;16.23;100.00
24752;BME280;27246;52.376;4.628;2023-08-06T07:57:26;100545.19;;;16.29;100.00
24752;BME280;27246;52.376;4.628;2023-08-06T08:02:27;100538.19;;;16.27;100.00
24752;BME280;27246;52.376;4.628;2023-08-06T08:07:29;100545.03;;;16.24;100.00
24752;BME280;27246;52.376;4.628;2023-08-06T08:12:32;100549.84;;;16.35;100.00
24752;BME280;27246;52.376;4.628;2023-08-06T08:17:34;100544.66;;;16.46;100.00
24752;BME280;27246;52.376;4.628;2023-08-06T08:22:36;100560.38;;;16.58;98.99
24752;BME280;27246;52.376;4.628;2023-08-06T08:27:38;100560.75;;;16.62;99.62
24752;BME280;27246;52.376;4.628;2023-08-06T08:32:41;100563.38;;;16.57;100.00
24752;BME280;27246;52.376;4.628;2023-08-06T08:37:43;100561.50;;;16.76;99.63
24752;BME280;27246;52.376;4.628;2023-08-06T08:42:45;100567.13;;;16.69;99.09
24752;BME280;27246;52.376;4.628;2023-08-06T08:47:47;100565.34;;;16.82;98.11
24752;BME280;27246;52.376;4.628;2023-08-06T08:52:51;100569.22;;;16.74;98.36
24752;BME280;27246;52.376;4.628;2023-08-06T08:57:54;100559.56;;;16.83;97.71
24752;BME280;27246;52.376;4.628;2023-08-06T09:03:00;100573.81;;;16.93;95.44
24752;BME280;27246;52.376;4.628;2023-08-06T09:08:05;100576.91;;;17.04;93.96
24752;BME280;27246;52.376;4.628;2023-08-06T09:13:08;100577.78;;;17.23;94.81
24752;BME280;27246;52.376;4.628;2023-08-06T09:18:11;100592.84;;;17.15;94.07
24752;BME280;27246;52.376;4.628;2023-08-06T09:23:13;100588.59;;;17.31;92.97
24752;BME280;27246;52.376;4.628;2023-08-06T09:28:14;100595.50;;;17.47;92.61
24752;BME280;27246;52.376;4.628;2023-08-06T09:33:19;100597.06;;;17.43;92.02
24752;BME280;27246;52.376;4.628;2023-08-06T09:38:25;100616.47;;;17.49;91.86
24752;BME280;27246;52.376;4.628;2023-08-06T09:43:26;100616.75;;;17.41;92.67
24752;BME280;27246;52.376;4.628;2023-08-06T09:48:28;100626.69;;;17.30;92.55
24752;BME280;27246;52.376;4.628;2023-08-06T09:53:30;100632.88;;;17.32;92.58
24752;BME280;27246;52.376;4.628;2023-08-06T09:58:32;100642.22;;;17.38;90.89
24752;BME280;27246;52.376;4.628;2023-08-06T10:03:34;100645.75;;;17.27;92.27
24752;BME280;27246;52.376;4.628;2023-08-06T10:08:36;100657.19;;;17.37;91.33
24752;BME280;27246;52.376;4.628;2023-08-06T10:13:38;100653.13;;;17.39;91.91
24752;BME280;27246;52.376;4.628;2023-08-06T10:18:42;100661.78;;;17.50;91.23
24752;BME280;27246;52.376;4.628;2023-08-06T10:23:44;100662.50;;;17.45;90.01
24752;BME280;27246;52.376;4.628;2023-08-06T10:28:46;100671.31;;;17.60;89.19
24752;BME280;27246;52.376;4.628;2023-08-06T10:33:47;100668.22;;;17.69;87.54
24752;BME280;27246;52.376;4.628;2023-08-06T10:38:50;100660.69;;;17.76;87.89
24752;BME280;27246;52.376;4.628;2023-08-06T10:43:52;100671.00;;;17.69;88.10
24752;BME280;27246;52.376;4.628;2023-08-06T10:48:54;100677.03;;;17.66;88.25
24752;BME280;27246;52.376;4.628;2023-08-06T10:53:56;100678.16;;;17.83;88.24
24752;BME280;27246;52.376;4.628;2023-08-06T10:58:59;100678.03;;;17.71;88.59
24752;BME280;27246;52.376;4.628;2023-08-06T11:04:02;100688.94;;;17.73;90.30
24752;BME280;27246;52.376;4.628;2023-08-06T11:09:06;100690.19;;;17.77;89.70
24752;BME280;27246;52.376;4.628;2023-08-06T11:14:14;100690.19;;;17.77;89.90
24752;BME280;27246;52.376;4.628;2023-08-06T11:19:16;100692.28;;;17.82;89.24
24752;BME280;27246;52.376;4.628;2023-08-06T11:24:18;100696.66;;;17.71;90.18
24752;BME280;27246;52.376;4.628;2023-08-06T11:29:20;100688.91;;;17.79;90.91
24752;BME280;27246;52.376;4.628;2023-08-06T11:34:24;100692.41;;;17.68;92.36
24752;BME280;27246;52.376;4.628;2023-08-06T11:39:26;100697.28;;;17.73;90.82
24752;BME280;27246;52.376;4.628;2023-08-06T11:44:36;100694.66;;;17.59;91.23
24752;BME280;27246;52.376;4.628;2023-08-06T11:54:42;100702.38;;;17.57;92.17
24752;BME280;27246;52.376;4.628;2023-08-06T11:59:43;100710.94;;;17.56;93.49
24752;BME280;27246;52.376;4.628;2023-08-06T12:05:00;100704.84;;;17.66;92.38
24752;BME280;27246;52.376;4.628;2023-08-06T12:10:02;100710.13;;;17.74;92.61
24752;BME280;27246;52.376;4.628;2023-08-06T12:15:05;100718.97;;;17.89;90.17
24752;BME280;27246;52.376;4.628;2023-08-06T12:20:10;100718.00;;;18.02;88.50
24752;BME280;27246;52.376;4.628;2023-08-06T12:25:12;100722.94;;;18.00;88.56
24752;BME280;27246;52.376;4.628;2023-08-06T12:30:14;100726.19;;;17.97;87.01
24752;BME280;27246;52.376;4.628;2023-08-06T12:35:16;100727.19;;;18.03;87.27
24752;BME280;27246;52.376;4.628;2023-08-06T12:40:18;100732.75;;;18.03;87.76
24752;BME280;27246;52.376;4.628;2023-08-06T12:45:34;100745.91;;;18.14;87.41
24752;BME280;27246;52.376;4.628;2023-08-06T12:50:36;100742.44;;;18.18;87.62
24752;BME280;27246;52.376;4.628;2023-08-06T12:55:37;100750.47;;;18.27;87.01
24752;BME280;27246;52.376;4.628;2023-08-06T13:00:40;100747.78;;;18.38;85.99
24752;BME280;27246;52.376;4.628;2023-08-06T13:05:42;100751.38;;;18.57;84.87
24752;BME280;27246;52.376;4.628;2023-08-06T13:10:44;100761.53;;;18.89;83.63
24752;BME280;27246;52.376;4.628;2023-08-06T13:15:46;100762.75;;;18.93;82.93
24752;BME280;27246;52.376;4.628;2023-08-06T13:20:48;100763.38;;;18.95;80.63
24752;BME280;27246;52.376;4.628;2023-08-06T13:25:54;100779.44;;;19.11;81.14
24752;BME280;27246;52.376;4.628;2023-08-06T13:30:55;100794.31;;;19.05;82.66
24752;BME280;27246;52.376;4.628;2023-08-06T13:35:57;100795.59;;;19.21;81.15
24752;BME280;27246;52.376;4.628;2023-08-06T13:40:59;100810.03;;;18.99;83.15
24752;BME280;27246;52.376;4.628;2023-08-06T13:46:02;100821.28;;;18.93;83.64
24752;BME280;27246;52.376;4.628;2023-08-06T13:51:04;100836.81;;;18.64;84.64
24752;BME280;27246;52.376;4.628;2023-08-06T13:56:06;100846.25;;;18.44;86.35
24752;BME280;27246;52.376;4.628;2023-08-06T14:01:12;100848.03;;;18.38;86.63
24752;BME280;27246;52.376;4.628;2023-08-06T14:06:15;100846.56;;;18.11;88.20
24752;BME280;27246;52.376;4.628;2023-08-06T14:11:16;100853.69;;;18.07;88.67
24752;BME280;27246;52.376;4.628;2023-08-06T14:16:18;100865.72;;;18.01;86.98
24752;BME280;27246;52.376;4.628;2023-08-06T14:21:20;100875.53;;;18.28;84.92
24752;BME280;27246;52.376;4.628;2023-08-06T14:26:22;100876.50;;;18.15;84.92
24752;BME280;27246;52.376;4.628;2023-08-06T14:31:24;100891.78;;;18.31;85.41
24752;BME280;27246;52.376;4.628;2023-08-06T14:36:26;100898.66;;;18.29;84.20
24752;BME280;27246;52.376;4.628;2023-08-06T14:41:27;100901.44;;;18.04;84.22
24752;BME280;27246;52.376;4.628;2023-08-06T14:46:29;100906.78;;;18.05;82.49
24752;BME280;27246;52.376;4.628;2023-08-06T14:51:33;100906.81;;;18.49;82.11
24752;BME280;27246;52.376;4.628;2023-08-06T14:56:36;100921.00;;;18.66;81.03
24752;BME280;27246;52.376;4.628;2023-08-06T15:01:38;100923.56;;;18.67;81.79
24752;BME280;27246;52.376;4.628;2023-08-06T15:06:40;100937.31;;;18.62;82.36
24752;BME280;27246;52.376;4.628;2023-08-06T15:11:41;100954.56;;;18.27;82.23
24752;BME280;27246;52.376;4.628;2023-08-06T15:16:43;100966.66;;;18.39;80.83
24752;BME280;27246;52.376;4.628;2023-08-06T15:21:45;100978.38;;;18.73;80.03
24752;BME280;27246;52.376;4.628;2023-08-06T15:26:47;100971.44;;;18.57;77.95
24752;BME280;27246;52.376;4.628;2023-08-06T15:31:48;100975.66;;;18.67;78.82
24752;BME280;27246;52.376;4.628;2023-08-06T15:36:51;100979.22;;;18.74;80.86
24752;BME280;27246;52.376;4.628;2023-08-06T15:41:54;100987.03;;;18.65;76.90
24752;BME280;27246;52.376;4.628;2023-08-06T15:46:55;100990.34;;;18.81;78.23
24752;BME280;27246;52.376;4.628;2023-08-06T15:51:57;101001.97;;;18.71;76.81
24752;BME280;27246;52.376;4.628;2023-08-06T15:56:59;100999.19;;;18.71;75.92
24752;BME280;27246;52.376;4.628;2023-08-06T16:02:02;101008.47;;;18.65;75.87
24752;BME280;27246;52.376;4.628;2023-08-06T16:07:05;101013.63;;;18.61;77.30
24752;BME280;27246;52.376;4.628;2023-08-06T16:12:07;101042.47;;;18.73;78.36
24752;BME280;27246;52.376;4.628;2023-08-06T16:17:11;101038.47;;;18.06;79.68
24752;BME280;27246;52.376;4.628;2023-08-06T16:22:13;101034.69;;;17.87;79.71
24752;BME280;27246;52.376;4.628;2023-08-06T16:27:14;101022.91;;;18.23;79.87
24752;BME280;27246;52.376;4.628;2023-08-06T16:32:16;101045.47;;;18.15;81.60
24752;BME280;27246;52.376;4.628;2023-08-06T16:37:18;101034.59;;;18.38;77.14
24752;BME280;27246;52.376;4.628;2023-08-06T16:42:19;101039.22;;;18.19;76.96
24752;BME280;27246;52.376;4.628;2023-08-06T16:47:21;101037.00;;;17.96;76.97
24752;BME280;27246;52.376;4.628;2023-08-06T16:52:23;101050.88;;;18.10;76.43
24752;BME280;27246;52.376;4.628;2023-08-06T16:57:25;101056.13;;;18.50;78.71
24752;BME280;27246;52.376;4.628;2023-08-06T17:02:26;101047.97;;;18.55;76.97
24752;BME280;27246;52.376;4.628;2023-08-06T17:07:28;101041.72;;;18.28;77.52
24752;BME280;27246;52.376;4.628;2023-08-06T17:12:30;101049.75;;;17.66;76.88
24752;BME280;27246;52.376;4.628;2023-08-06T17:17:32;101047.34;;;18.53;80.56
24752;BME280;27246;52.376;4.628;2023-08-06T17:22:34;101055.25;;;17.79;79.46
24752;BME280;27246;52.376;4.628;2023-08-06T17:27:36;101053.34;;;17.73;80.37
24752;BME280;27246;52.376;4.628;2023-08-06T17:32:38;101059.34;;;17.76;81.18
24752;BME280;27246;52.376;4.628;2023-08-06T17:37:41;101062.25;;;17.43;80.64
24752;BME280;27246;52.376;4.628;2023-08-06T17:42:43;101070.34;;;17.51;83.47
24752;BME280;27246;52.376;4.628;2023-08-06T17:47:45;101073.78;;;17.47;85.62
24752;BME280;27246;52.376;4.628;2023-08-06T17:52:49;101080.31;;;17.72;84.85
24752;BME280;27246;52.376;4.628;2023-08-06T17:57:51;101088.94;;;18.48;82.12
24752;BME280;27246;52.376;4.628;2023-08-06T18:02:53;101082.84;;;17.94;83.51
24752;BME280;27246;52.376;4.628;2023-08-06T18:07:54;101071.22;;;17.45;85.33
24752;BME280;27246;52.376;4.628;2023-08-06T18:12:56;101098.84;;;17.20;86.39
24752;BME280;27246;52.376;4.628;2023-08-06T18:17:58;101085.28;;;17.57;87.25
24752;BME280;27246;52.376;4.628;2023-08-06T18:23:02;101090.53;;;17.13;86.87
24752;BME280;27246;52.376;4.628;2023-08-06T18:28:06;101072.16;;;17.06;89.01
24752;BME280;27246;52.376;4.628;2023-08-06T18:33:08;101095.66;;;17.23;87.86
24752;BME280;27246;52.376;4.628;2023-08-06T18:38:10;101090.53;;;17.20;86.50
24752;BME280;27246;52.376;4.628;2023-08-06T18:43:11;101082.00;;;16.82;89.49
24752;BME280;27246;52.376;4.628;2023-08-06T18:48:13;101080.72;;;17.11;89.32
24752;BME280;27246;52.376;4.628;2023-08-06T18:53:17;101098.59;;;17.35;88.28
24752;BME280;27246;52.376;4.628;2023-08-06T18:58:20;101093.69;;;17.37;89.38
24752;BME280;27246;52.376;4.628;2023-08-06T19:03:22;101087.88;;;17.52;88.87
24752;BME280;27246;52.376;4.628;2023-08-06T19:08:24;101093.09;;;17.22;89.65
24752;BME280;27246;52.376;4.628;2023-08-06T19:13:26;101099.91;;;17.32;89.92
24752;BME280;27246;52.376;4.628;2023-08-06T19:18:27;101104.66;;;17.05;90.64
24752;BME280;27246;52.376;4.628;2023-08-06T19:23:29;101101.00;;;17.11;89.88
24752;BME280;27246;52.376;4.628;2023-08-06T19:28:32;101112.53;;;17.22;91.40
24752;BME280;27246;52.376;4.628;2023-08-06T19:33:35;101114.44;;;16.61;91.02
24752;BME280;27246;52.376;4.628;2023-08-06T19:38:37;101101.19;;;17.43;90.65
24752;BME280;27246;52.376;4.628;2023-08-06T19:43:39;101112.31;;;17.30;88.65
24752;BME280;27246;52.376;4.628;2023-08-06T19:48:41;101126.53;;;17.80;86.55
24752;BME280;27246;52.376;4.628;2023-08-06T19:53:43;101129.72;;;17.77;87.71
24752;BME280;27246;52.376;4.628;2023-08-06T19:58:45;101121.00;;;17.67;84.84
24752;BME280;27246;52.376;4.628;2023-08-06T20:03:46;101130.19;;;17.67;86.16
24752;BME280;27246;52.376;4.628;2023-08-06T20:08:48;101129.41;;;17.27;88.20
24752;BME280;27246;52.376;4.628;2023-08-06T20:13:50;101133.41;;;17.64;87.65
24752;BME280;27246;52.376;4.628;2023-08-06T20:18:52;101140.53;;;17.27;89.56
24752;BME280;27246;52.376;4.628;2023-08-06T20:23:53;101143.00;;;17.75;87.94
24752;BME280;27246;52.376;4.628;2023-08-06T20:28:55;101146.53;;;17.10;87.39
24752;BME280;27246;52.376;4.628;2023-08-06T20:33:58;101145.22;;;17.46;86.61
24752;BME280;27246;52.376;4.628;2023-08-06T20:38:59;101137.97;;;17.18;87.02
24752;BME280;27246;52.376;4.628;2023-08-06T20:44:03;101147.41;;;17.04;85.18
24752;BME280;27246;52.376;4.628;2023-08-06T20:49:05;101159.34;;;17.25;86.21
24752;BME280;27246;52.376;4.628;2023-08-06T20:54:07;101155.47;;;17.52;89.35
24752;BME280;27246;52.376;4.628;2023-08-06T20:59:08;101160.03;;;17.13;85.06
24752;BME280;27246;52.376;4.628;2023-08-06T21:04:10;101169.22;;;17.07;85.03
24752;BME280;27246;52.376;4.628;2023-08-06T21:09:12;101158.28;;;16.92;86.32
24752;BME280;27246;52.376;4.628;2023-08-06T21:14:14;101161.72;;;17.21;85.09
24752;BME280;27246;52.376;4.628;2023-08-06T21:19:16;101173.69;;;17.28;88.40
24752;BME280;27246;52.376;4.628;2023-08-06T21:24:17;101165.31;;;17.62;81.18
24752;BME280;27246;52.376;4.628;2023-08-06T21:29:20;101179.44;;;17.27;80.03
24752;BME280;27246;52.376;4.628;2023-08-06T21:34:21;101174.72;;;16.80;82.03
24752;BME280;27246;52.376;4.628;2023-08-06T21:39:23;101175.34;;;17.63;85.75
24752;BME280;27246;52.376;4.628;2023-08-06T21:44:25;101180.13;;;17.35;86.84
24752;BME280;27246;52.376;4.628;2023-08-06T21:49:26;101180.31;;;17.34;83.27
24752;BME280;27246;52.376;4.628;2023-08-06T21:54:30;101183.53;;;17.24;83.30
24752;BME280;27246;52.376;4.628;2023-08-06T21:59:31;101172.63;;;17.23;84.82
24752;BME280;27246;52.376;4.628;2023-08-06T22:04:36;101175.59;;;16.81;86.07
24752;BME280;27246;52.376;4.628;2023-08-06T22:09:37;101173.06;;;17.39;85.50
24752;BME280;27246;52.376;4.628;2023-08-06T22:14:39;101176.91;;;17.05;85.20
24752;BME280;27246;52.376;4.628;2023-08-06T22:19:41;101171.31;;;16.98;86.33
24752;BME280;27246;52.376;4.628;2023-08-06T22:24:43;101171.34;;;17.18;83.69
24752;BME280;27246;52.376;4.628;2023-08-06T22:29:45;101169.19;;;17.47;85.56
24752;BME280;27246;52.376;4.628;2023-08-06T22:34:46;101177.06;;;17.57;82.08
24752;BME280;27246;52.376;4.628;2023-08-06T22:39:48;101165.34;;;17.28;82.95
24752;BME280;27246;52.376;4.628;2023-08-06T22:44:50;101170.06;;;17.28;84.89
24752;BME280;27246;52.376;4.628;2023-08-06T22:49:51;101177.72;;;17.52;83.26
24752;BME280;27246;52.376;4.628;2023-08-06T22:54:53;101172.81;;;17.54;80.31
24752;BME280;27246;52.376;4.628;2023-08-06T23:00:12;101167.91;;;17.50;82.38
24752;BME280;27246;52.376;4.628;2023-08-06T23:05:14;101179.25;;;17.08;81.57
24752;BME280;27246;52.376;4.628;2023-08-06T23:10:16;101174.06;;;16.78;82.99
24752;BME280;27246;52.376;4.628;2023-08-06T23:15:18;101185.69;;;17.09;82.93
24752;BME280;27246;52.376;4.628;2023-08-06T23:20:20;101188.88;;;17.26;81.31
24752;BME280;27246;52.376;4.628;2023-08-06T23:25:22;101183.97;;;17.41;80.59
24752;BME280;27246;52.376;4.628;2023-08-06T23:30:24;101192.28;;;17.54;80.15
24752;BME280;27246;52.376;4.628;2023-08-06T23:35:25;101201.03;;;17.05;80.71
24752;BME280;27246;52.376;4.628;2023-08-06T23:40:27;101206.84;;;17.43;82.27
24752;BME280;27246;52.376;4.628;2023-08-06T23:45:29;101214.09;;;17.57;82.10
24752;BME280;27246;52.376;4.628;2023-08-06T23:50:30;101189.72;;;17.59;84.13
24752;BME280;27246;52.376;4.628;2023-08-06T23:55:32;101204.06;;;17.36;80.80
